N624ML SCPF-SCFT
Flight info
| Callsign | N624ML |
|---|---|
| Flight time | 1h 26m |
| Altitude | 1500 |
| Route | SCPF/19 SCKM SCPB SCLD SCSR VFR |
| Aircraft | EC35/L-G/C |
Departure
| Time | 2026-04-28 19:00 |
|---|---|
| Airport | Marcel Marchant Airport (SCPF) |
Arrival
| Time | 2026-04-28 20:27 |
|---|---|
| Airport | Futaleufú Airport (SCFT) |
| Time | Latitude | Longitude | Altitude | Speed | Heading |
|---|---|---|---|---|---|
| 2026-04-28 18:49 | -41.45491 | -72.91872 | 374 ft | 0 kts | 111° |
| 2026-04-28 18:59 | -41.45500 | -72.91866 | 381 ft | 2 kts | 36° |
| 2026-04-28 18:59 | -41.45495 | -72.91862 | 383 ft | 1 kts | 28° |
| 2026-04-28 19:00 | -41.45436 | -72.91823 | 398 ft | 36 kts | 20° |
| 2026-04-28 19:00 | -41.45070 | -72.91599 | 594 ft | 67 kts | 16° |
| 2026-04-28 19:00 | -41.44622 | -72.91265 | 833 ft | 81 kts | 19° |
| 2026-04-28 19:00 | -41.44221 | -72.90660 | 1019 ft | 101 kts | 60° |
| 2026-04-28 19:01 | -41.44084 | -72.89717 | 1231 ft | 105 kts | 68° |
| 2026-04-28 19:01 | -41.44093 | -72.88718 | 1435 ft | 114 kts | 92° |
| 2026-04-28 19:01 | -41.44231 | -72.87621 | 1537 ft | 132 kts | 87° |
| 2026-04-28 19:01 | -41.44278 | -72.86343 | 1515 ft | 140 kts | 81° |
| 2026-04-28 19:02 | -41.44290 | -72.85020 | 1517 ft | 143 kts | 82° |
| 2026-04-28 19:02 | -41.44309 | -72.83703 | 1502 ft | 146 kts | 82° |
| 2026-04-28 19:02 | -41.44314 | -72.82348 | 1475 ft | 145 kts | 81° |
| 2026-04-28 19:02 | -41.44318 | -72.81025 | 1489 ft | 140 kts | 82° |
| 2026-04-28 19:03 | -41.44320 | -72.79724 | 1455 ft | 141 kts | 81° |
| 2026-04-28 19:03 | -41.44327 | -72.78433 | 1514 ft | 142 kts | 81° |
| 2026-04-28 19:03 | -41.44342 | -72.77100 | 1543 ft | 142 kts | 80° |
| 2026-04-28 19:03 | -41.44356 | -72.75769 | 1525 ft | 144 kts | 83° |
| 2026-04-28 19:04 | -41.44360 | -72.74415 | 1500 ft | 147 kts | 81° |
| 2026-04-28 19:04 | -41.44358 | -72.73069 | 1490 ft | 145 kts | 82° |
| 2026-04-28 19:04 | -41.44346 | -72.71729 | 1488 ft | 145 kts | 82° |
| 2026-04-28 19:04 | -41.44334 | -72.70402 | 1496 ft | 145 kts | 82° |
| 2026-04-28 19:05 | -41.44323 | -72.69053 | 1494 ft | 146 kts | 81° |
| 2026-04-28 19:05 | -41.44318 | -72.67678 | 1468 ft | 148 kts | 82° |
| 2026-04-28 19:05 | -41.44300 | -72.66329 | 1509 ft | 144 kts | 83° |
| 2026-04-28 19:05 | -41.44280 | -72.64998 | 1504 ft | 144 kts | 82° |
| 2026-04-28 19:06 | -41.44266 | -72.63696 | 1423 ft | 140 kts | 82° |
| 2026-04-28 19:06 | -41.44258 | -72.62834 | 1412 ft | 134 kts | 80° |
| 2026-04-28 19:06 | -41.44236 | -72.61203 | 1461 ft | 134 kts | 83° |
| 2026-04-28 19:06 | -41.44051 | -72.60004 | 1512 ft | 127 kts | 58° |
| 2026-04-28 19:07 | -41.43558 | -72.59044 | 1587 ft | 127 kts | 44° |
| 2026-04-28 19:07 | -41.43063 | -72.57968 | 1445 ft | 145 kts | 70° |
| 2026-04-28 19:07 | -41.43217 | -72.56662 | 1488 ft | 146 kts | 109° |
| 2026-04-28 19:07 | -41.43580 | -72.55386 | 1473 ft | 148 kts | 106° |
| 2026-04-28 19:08 | -41.43909 | -72.54095 | 1485 ft | 147 kts | 104° |
| 2026-04-28 19:08 | -41.44218 | -72.52810 | 1476 ft | 146 kts | 103° |
| 2026-04-28 19:08 | -41.44524 | -72.51511 | 1501 ft | 145 kts | 103° |
| 2026-04-28 19:08 | -41.44831 | -72.50221 | 1471 ft | 147 kts | 103° |
| 2026-04-28 19:09 | -41.45129 | -72.48930 | 1480 ft | 145 kts | 102° |
| 2026-04-28 19:09 | -41.45658 | -72.47768 | 1435 ft | 154 kts | 140° |
| 2026-04-28 19:09 | -41.46672 | -72.47596 | 1595 ft | 144 kts | 183° |
| 2026-04-28 19:09 | -41.47657 | -72.47224 | 1464 ft | 159 kts | 146° |
| 2026-04-28 19:10 | -41.48501 | -72.46230 | 1123 ft | 165 kts | 134° |
| 2026-04-28 19:10 | -41.49246 | -72.45310 | 1581 ft | 128 kts | 136° |
| 2026-04-28 19:10 | -41.49839 | -72.44399 | 1602 ft | 140 kts | 111° |
| 2026-04-28 19:10 | -41.50101 | -72.43187 | 1834 ft | 126 kts | 99° |
| 2026-04-28 19:11 | -41.50341 | -72.42200 | 2356 ft | 114 kts | 101° |
| 2026-04-28 19:11 | -41.50569 | -72.41040 | 2189 ft | 134 kts | 92° |
| 2026-04-28 19:11 | -41.50807 | -72.39879 | 2259 ft | 123 kts | 104° |
| 2026-04-28 19:11 | -41.51134 | -72.38906 | 2537 ft | 111 kts | 110° |
| 2026-04-28 19:12 | -41.51470 | -72.37891 | 2498 ft | 126 kts | 106° |
| 2026-04-28 19:12 | -41.51790 | -72.36832 | 2436 ft | 116 kts | 94° |
| 2026-04-28 19:12 | -41.51688 | -72.35788 | 2088 ft | 119 kts | 59° |
| 2026-04-28 19:12 | -41.51165 | -72.34914 | 1535 ft | 131 kts | 40° |
| 2026-04-28 19:13 | -41.50486 | -72.34163 | 1115 ft | 111 kts | 33° |
| 2026-04-28 19:13 | -41.49987 | -72.33675 | 1121 ft | 67 kts | 35° |
| 2026-04-28 19:13 | -41.49621 | -72.33320 | 886 ft | 66 kts | 36° |
| 2026-04-28 19:13 | -41.49249 | -72.32946 | 646 ft | 69 kts | 39° |
| 2026-04-28 19:14 | -41.48888 | -72.32583 | 401 ft | 61 kts | 42° |
| 2026-04-28 19:14 | -41.48569 | -72.32282 | 203 ft | 52 kts | 45° |
| 2026-04-28 19:14 | -41.48307 | -72.32007 | 104 ft | 39 kts | 77° |
| 2026-04-28 19:14 | -41.48373 | -72.31657 | 30 ft | 34 kts | 110° |
| 2026-04-28 19:15 | -41.48438 | -72.31482 | 34 ft | 14 kts | 104° |
| 2026-04-28 19:15 | -41.48468 | -72.31292 | 105 ft | 38 kts | 82° |
| 2026-04-28 19:15 | -41.48424 | -72.30936 | 367 ft | 47 kts | 38° |
| 2026-04-28 19:15 | -41.48348 | -72.30828 | 377 ft | 48 kts | 26° |
| 2026-04-28 19:16 | -41.48088 | -72.30729 | 311 ft | 26 kts | 196° |
| 2026-04-28 19:16 | -41.48245 | -72.30770 | 323 ft | 11 kts | 175° |
| 2026-04-28 19:16 | -41.48342 | -72.30790 | 330 ft | 24 kts | 186° |
| 2026-04-28 19:16 | -41.48479 | -72.30806 | 328 ft | 10 kts | 304° |
| 2026-04-28 19:17 | -41.48488 | -72.30813 | 322 ft | 0 kts | 360° |
| 2026-04-28 19:19 | -41.48402 | -72.30788 | 352 ft | 40 kts | 360° |
| 2026-04-28 19:19 | -41.48232 | -72.31124 | 249 ft | 93 kts | 223° |
| 2026-04-28 19:19 | -41.48912 | -72.31496 | 163 ft | 118 kts | 185° |
| 2026-04-28 19:19 | -41.49732 | -72.31631 | 267 ft | 118 kts | 187° |
| 2026-04-28 19:20 | -41.50550 | -72.31769 | 396 ft | 118 kts | 186° |
| 2026-04-28 19:20 | -41.51389 | -72.31889 | 454 ft | 124 kts | 186° |
| 2026-04-28 19:20 | -41.52259 | -72.32004 | 462 ft | 129 kts | 187° |
| 2026-04-28 19:20 | -41.53180 | -72.32114 | 455 ft | 132 kts | 186° |
| 2026-04-28 19:21 | -41.54081 | -72.32228 | 466 ft | 130 kts | 187° |
| 2026-04-28 19:21 | -41.54984 | -72.32335 | 471 ft | 129 kts | 187° |
| 2026-04-28 19:21 | -41.55897 | -72.32437 | 475 ft | 132 kts | 187° |
| 2026-04-28 19:21 | -41.56811 | -72.32532 | 472 ft | 131 kts | 187° |
| 2026-04-28 19:22 | -41.57733 | -72.32623 | 368 ft | 129 kts | 187° |
| 2026-04-28 19:22 | -41.58025 | -72.32647 | 389 ft | 124 kts | 186° |
| 2026-04-28 19:22 | -41.59432 | -72.32864 | 280 ft | 125 kts | 189° |
| 2026-04-28 19:22 | -41.60287 | -72.32998 | 269 ft | 121 kts | 189° |
| 2026-04-28 19:23 | -41.61115 | -72.33131 | 270 ft | 119 kts | 190° |
| 2026-04-28 19:23 | -41.61932 | -72.33257 | 255 ft | 117 kts | 188° |
| 2026-04-28 19:23 | -41.62737 | -72.33380 | 263 ft | 116 kts | 190° |
| 2026-04-28 19:23 | -41.63554 | -72.33446 | 241 ft | 119 kts | 175° |
| 2026-04-28 19:24 | -41.64351 | -72.33183 | 256 ft | 116 kts | 167° |
| 2026-04-28 19:24 | -41.65100 | -72.32780 | 199 ft | 113 kts | 150° |
| 2026-04-28 19:24 | -41.65654 | -72.32215 | 285 ft | 93 kts | 120° |
| 2026-04-28 19:24 | -41.65879 | -72.31426 | 254 ft | 91 kts | 104° |
| 2026-04-28 19:25 | -41.66051 | -72.30701 | 276 ft | 71 kts | 96° |
| 2026-04-28 19:25 | -41.65957 | -72.30210 | 156 ft | 36 kts | 42° |
| 2026-04-28 19:25 | -41.65884 | -72.30104 | 69 ft | 7 kts | 346° |
| 2026-04-28 19:25 | -41.65860 | -72.30109 | 55 ft | 1 kts | 332° |
| 2026-04-28 19:27 | -41.65859 | -72.30109 | 63 ft | 1 kts | 347° |
| 2026-04-28 19:27 | -41.65873 | -72.30075 | 69 ft | 10 kts | 78° |
| 2026-04-28 19:27 | -41.65752 | -72.29727 | 120 ft | 72 kts | 56° |
| 2026-04-28 19:27 | -41.65487 | -72.29047 | 320 ft | 91 kts | 57° |
| 2026-04-28 19:28 | -41.65176 | -72.28284 | 512 ft | 96 kts | 53° |
| 2026-04-28 19:28 | -41.64841 | -72.27486 | 700 ft | 98 kts | 52° |
| 2026-04-28 19:28 | -41.64507 | -72.26696 | 866 ft | 99 kts | 55° |
| 2026-04-28 19:28 | -41.64214 | -72.25834 | 1077 ft | 100 kts | 61° |
| 2026-04-28 19:29 | -41.63934 | -72.24963 | 1289 ft | 101 kts | 65° |
| 2026-04-28 19:29 | -41.63821 | -72.24356 | 1423 ft | 103 kts | 70° |
| 2026-04-28 19:29 | -41.63590 | -72.23002 | 1532 ft | 125 kts | 69° |
| 2026-04-28 19:29 | -41.63596 | -72.21785 | 1513 ft | 135 kts | 90° |
| 2026-04-28 19:30 | -41.63705 | -72.20512 | 1524 ft | 136 kts | 92° |
| 2026-04-28 19:30 | -41.63872 | -72.19241 | 1485 ft | 139 kts | 96° |
| 2026-04-28 19:30 | -41.64083 | -72.17977 | 1494 ft | 140 kts | 99° |
| 2026-04-28 19:30 | -41.64489 | -72.16782 | 1463 ft | 146 kts | 129° |
| 2026-04-28 19:31 | -41.65341 | -72.16087 | 1497 ft | 142 kts | 150° |
| 2026-04-28 19:31 | -41.66212 | -72.15468 | 1487 ft | 143 kts | 151° |
| 2026-04-28 19:31 | -41.67093 | -72.14841 | 1495 ft | 141 kts | 151° |
| 2026-04-28 19:31 | -41.67943 | -72.14160 | 1495 ft | 141 kts | 142° |
| 2026-04-28 19:32 | -41.68683 | -72.13312 | 1501 ft | 141 kts | 134° |
| 2026-04-28 19:32 | -41.69374 | -72.12360 | 1497 ft | 142 kts | 132° |
| 2026-04-28 19:32 | -41.70043 | -72.11392 | 1493 ft | 142 kts | 131° |
| 2026-04-28 19:32 | -41.70721 | -72.10422 | 1475 ft | 141 kts | 131° |
| 2026-04-28 19:33 | -41.71422 | -72.09501 | 1479 ft | 141 kts | 140° |
| 2026-04-28 19:33 | -41.72195 | -72.08703 | 1480 ft | 141 kts | 141° |
| 2026-04-28 19:33 | -41.72989 | -72.07928 | 1480 ft | 141 kts | 142° |
| 2026-04-28 19:33 | -41.73772 | -72.07141 | 1476 ft | 141 kts | 141° |
| 2026-04-28 19:34 | -41.74547 | -72.06319 | 1469 ft | 139 kts | 139° |
| 2026-04-28 19:34 | -41.75288 | -72.05502 | 1424 ft | 136 kts | 138° |
| 2026-04-28 19:34 | -41.75990 | -72.04713 | 1464 ft | 128 kts | 138° |
| 2026-04-28 19:34 | -41.76673 | -72.03933 | 1465 ft | 127 kts | 138° |
| 2026-04-28 19:35 | -41.77359 | -72.03167 | 1443 ft | 126 kts | 140° |
| 2026-04-28 19:35 | -41.78022 | -72.02405 | 1457 ft | 125 kts | 138° |
| 2026-04-28 19:35 | -41.78704 | -72.01631 | 1454 ft | 127 kts | 137° |
| 2026-04-28 19:35 | -41.79374 | -72.00887 | 1470 ft | 125 kts | 139° |
| 2026-04-28 19:36 | -41.80067 | -72.00142 | 1434 ft | 129 kts | 139° |
| 2026-04-28 19:36 | -41.80777 | -71.99388 | 1390 ft | 129 kts | 140° |
| 2026-04-28 19:36 | -41.81482 | -71.98640 | 1393 ft | 129 kts | 139° |
| 2026-04-28 19:36 | -41.82191 | -71.97879 | 1387 ft | 131 kts | 140° |
| 2026-04-28 19:37 | -41.82925 | -71.97098 | 1301 ft | 132 kts | 140° |
| 2026-04-28 19:37 | -41.83164 | -71.96844 | 1284 ft | 131 kts | 139° |
| 2026-04-28 19:37 | -41.84264 | -71.95674 | 1290 ft | 113 kts | 144° |
| 2026-04-28 19:37 | -41.84914 | -71.95053 | 1156 ft | 115 kts | 148° |
| 2026-04-28 19:38 | -41.85500 | -71.94460 | 1162 ft | 99 kts | 143° |
| 2026-04-28 19:38 | -41.86041 | -71.93932 | 1088 ft | 91 kts | 155° |
| 2026-04-28 19:38 | -41.86563 | -71.93552 | 1054 ft | 76 kts | 159° |
| 2026-04-28 19:38 | -41.87026 | -71.93412 | 953 ft | 66 kts | 202° |
| 2026-04-28 19:39 | -41.87297 | -71.93739 | 893 ft | 44 kts | 248° |
| 2026-04-28 19:39 | -41.87356 | -71.94031 | 829 ft | 20 kts | 333° |
| 2026-04-28 19:39 | -41.87337 | -71.94051 | 828 ft | 0 kts | 130° |
| 2026-04-28 19:40 | -41.87340 | -71.94050 | 844 ft | 6 kts | 182° |
| 2026-04-28 19:40 | -41.87362 | -71.94019 | 1102 ft | 18 kts | 131° |
| 2026-04-28 19:40 | -41.87426 | -71.93827 | 1222 ft | 57 kts | 121° |
| 2026-04-28 19:40 | -41.87033 | -71.93063 | 1460 ft | 101 kts | 9° |
| 2026-04-28 19:41 | -41.86407 | -71.93419 | 1639 ft | 110 kts | 302° |
| 2026-04-28 19:41 | -41.86492 | -71.94448 | 1784 ft | 124 kts | 237° |
| 2026-04-28 19:41 | -41.87234 | -71.94874 | 2015 ft | 121 kts | 176° |
| 2026-04-28 19:41 | -41.88015 | -71.94628 | 2392 ft | 106 kts | 163° |
| 2026-04-28 19:42 | -41.88739 | -71.94398 | 2557 ft | 120 kts | 166° |
| 2026-04-28 19:42 | -41.89620 | -71.94001 | 2485 ft | 131 kts | 155° |
| 2026-04-28 19:42 | -41.90489 | -71.93519 | 2460 ft | 135 kts | 154° |
| 2026-04-28 19:42 | -41.91061 | -71.93199 | 2573 ft | 131 kts | 161° |
| 2026-04-28 19:43 | -41.92229 | -71.92521 | 2807 ft | 140 kts | 157° |
| 2026-04-28 19:43 | -41.93147 | -71.92002 | 2945 ft | 141 kts | 157° |
| 2026-04-28 19:43 | -41.94073 | -71.91491 | 3060 ft | 145 kts | 156° |
| 2026-04-28 19:43 | -41.95000 | -71.90985 | 3176 ft | 144 kts | 155° |
| 2026-04-28 19:44 | -41.95968 | -71.90461 | 3291 ft | 144 kts | 155° |
| 2026-04-28 19:44 | -41.96889 | -71.89956 | 3409 ft | 143 kts | 157° |
| 2026-04-28 19:44 | -41.97829 | -71.89433 | 3428 ft | 145 kts | 157° |
| 2026-04-28 19:44 | -41.98668 | -71.88673 | 3480 ft | 145 kts | 140° |
| 2026-04-28 19:45 | -41.99488 | -71.87860 | 3454 ft | 146 kts | 142° |
| 2026-04-28 19:45 | -42.00321 | -71.87061 | 3455 ft | 147 kts | 142° |
| 2026-04-28 19:45 | -42.01148 | -71.86265 | 3444 ft | 145 kts | 142° |
| 2026-04-28 19:45 | -42.01956 | -71.85474 | 3442 ft | 145 kts | 143° |
| 2026-04-28 19:46 | -42.02783 | -71.84671 | 3440 ft | 146 kts | 142° |
| 2026-04-28 19:46 | -42.03600 | -71.83868 | 3445 ft | 145 kts | 143° |
| 2026-04-28 19:46 | -42.04420 | -71.83067 | 3443 ft | 147 kts | 143° |
| 2026-04-28 19:46 | -42.05244 | -71.82262 | 3442 ft | 145 kts | 142° |
| 2026-04-28 19:47 | -42.06068 | -71.81463 | 3438 ft | 147 kts | 142° |
| 2026-04-28 19:47 | -42.06899 | -71.80654 | 3436 ft | 146 kts | 143° |
| 2026-04-28 19:47 | -42.07737 | -71.79842 | 3426 ft | 149 kts | 142° |
| 2026-04-28 19:47 | -42.08573 | -71.79030 | 3410 ft | 145 kts | 142° |
| 2026-04-28 19:48 | -42.09403 | -71.78246 | 3435 ft | 146 kts | 143° |
| 2026-04-28 19:48 | -42.10091 | -71.77266 | 3431 ft | 144 kts | 115° |
| 2026-04-28 19:48 | -42.10415 | -71.76016 | 3445 ft | 142 kts | 102° |
| 2026-04-28 19:48 | -42.10645 | -71.74713 | 3429 ft | 142 kts | 99° |
| 2026-04-28 19:49 | -42.10745 | -71.73397 | 3434 ft | 143 kts | 88° |
| 2026-04-28 19:49 | -42.10770 | -71.72045 | 3431 ft | 143 kts | 87° |
| 2026-04-28 19:49 | -42.10781 | -71.70702 | 3437 ft | 143 kts | 87° |
| 2026-04-28 19:49 | -42.11019 | -71.69390 | 3408 ft | 147 kts | 112° |
| 2026-04-28 19:50 | -42.11871 | -71.66886 | 3445 ft | 151 kts | 111° |
| 2026-04-28 19:50 | -42.12314 | -71.65606 | 3415 ft | 152 kts | 112° |
| 2026-04-28 19:50 | -42.12748 | -71.64322 | 3401 ft | 148 kts | 112° |
| 2026-04-28 19:51 | -42.13179 | -71.63057 | 3405 ft | 148 kts | 112° |
| 2026-04-28 19:51 | -42.13691 | -71.61824 | 3416 ft | 148 kts | 120° |
| 2026-04-28 19:51 | -42.14271 | -71.60633 | 3380 ft | 150 kts | 122° |
| 2026-04-28 19:51 | -42.14840 | -71.59455 | 3376 ft | 147 kts | 120° |
| 2026-04-28 19:52 | -42.15400 | -71.58307 | 3413 ft | 148 kts | 122° |
| 2026-04-28 19:52 | -42.15979 | -71.57111 | 3428 ft | 150 kts | 122° |
| 2026-04-28 19:52 | -42.16577 | -71.55907 | 3381 ft | 154 kts | 123° |
| 2026-04-28 19:52 | -42.17184 | -71.54752 | 3371 ft | 149 kts | 124° |
| 2026-04-28 19:53 | -42.17784 | -71.53612 | 3392 ft | 150 kts | 124° |
| 2026-04-28 19:53 | -42.18374 | -71.52466 | 3456 ft | 148 kts | 123° |
| 2026-04-28 19:53 | -42.18975 | -71.51308 | 3413 ft | 152 kts | 123° |
| 2026-04-28 19:53 | -42.19568 | -71.50149 | 3382 ft | 153 kts | 123° |
| 2026-04-28 19:54 | -42.20169 | -71.48975 | 3378 ft | 150 kts | 122° |
| 2026-04-28 19:54 | -42.20766 | -71.47797 | 3412 ft | 150 kts | 122° |
| 2026-04-28 19:54 | -42.21324 | -71.46597 | 3358 ft | 153 kts | 122° |
| 2026-04-28 19:54 | -42.21892 | -71.45396 | 3375 ft | 149 kts | 120° |
| 2026-04-28 19:55 | -42.22447 | -71.44211 | 3383 ft | 150 kts | 121° |
| 2026-04-28 19:55 | -42.23001 | -71.43022 | 3346 ft | 150 kts | 122° |
| 2026-04-28 19:55 | -42.23545 | -71.41842 | 3392 ft | 148 kts | 119° |
| 2026-04-28 19:55 | -42.24083 | -71.40629 | 3417 ft | 152 kts | 118° |
| 2026-04-28 19:56 | -42.24768 | -71.39523 | 3400 ft | 152 kts | 136° |
| 2026-04-28 19:56 | -42.25521 | -71.38501 | 3409 ft | 156 kts | 131° |
| 2026-04-28 19:56 | -42.26373 | -71.37636 | 3404 ft | 153 kts | 145° |
| 2026-04-28 19:56 | -42.27260 | -71.36839 | 3387 ft | 150 kts | 150° |
| 2026-04-28 19:57 | -42.28157 | -71.36128 | 3381 ft | 152 kts | 161° |
| 2026-04-28 19:57 | -42.29143 | -71.35668 | 3360 ft | 147 kts | 164° |
| 2026-04-28 19:57 | -42.30136 | -71.35323 | 3356 ft | 147 kts | 173° |
| 2026-04-28 19:57 | -42.31159 | -71.35098 | 3352 ft | 148 kts | 176° |
| 2026-04-28 19:58 | -42.32113 | -71.35474 | 3358 ft | 138 kts | 212° |
| 2026-04-28 19:58 | -42.32649 | -71.35934 | 3346 ft | 137 kts | 216° |
| 2026-04-28 19:58 | -42.33727 | -71.36853 | 3347 ft | 138 kts | 214° |
| 2026-04-28 19:58 | -42.34534 | -71.37550 | 3360 ft | 139 kts | 216° |
| 2026-04-28 19:59 | -42.35345 | -71.38259 | 3335 ft | 136 kts | 216° |
| 2026-04-28 19:59 | -42.36137 | -71.38950 | 3353 ft | 137 kts | 217° |
| 2026-04-28 19:59 | -42.36954 | -71.39651 | 3346 ft | 138 kts | 218° |
| 2026-04-28 19:59 | -42.37498 | -71.40109 | 3360 ft | 137 kts | 217° |
| 2026-04-28 20:00 | -42.38575 | -71.41028 | 3362 ft | 138 kts | 217° |
| 2026-04-28 20:00 | -42.39400 | -71.41722 | 3372 ft | 139 kts | 215° |
| 2026-04-28 20:00 | -42.40212 | -71.42426 | 3512 ft | 135 kts | 217° |
| 2026-04-28 20:00 | -42.41013 | -71.43130 | 3492 ft | 138 kts | 219° |
| 2026-04-28 20:01 | -42.41727 | -71.44002 | 3500 ft | 137 kts | 227° |
| 2026-04-28 20:01 | -42.42444 | -71.44857 | 3510 ft | 138 kts | 226° |
| 2026-04-28 20:01 | -42.43171 | -71.45716 | 3503 ft | 137 kts | 225° |
| 2026-04-28 20:01 | -42.43876 | -71.46569 | 3492 ft | 137 kts | 227° |
| 2026-04-28 20:02 | -42.44589 | -71.47425 | 3486 ft | 136 kts | 227° |
| 2026-04-28 20:02 | -42.45294 | -71.48275 | 3499 ft | 135 kts | 225° |
| 2026-04-28 20:02 | -42.46005 | -71.49123 | 3513 ft | 135 kts | 226° |
| 2026-04-28 20:02 | -42.46701 | -71.49956 | 3526 ft | 136 kts | 225° |
| 2026-04-28 20:03 | -42.47414 | -71.50820 | 3529 ft | 137 kts | 226° |
| 2026-04-28 20:03 | -42.48140 | -71.51684 | 3515 ft | 137 kts | 226° |
| 2026-04-28 20:03 | -42.48842 | -71.52544 | 3510 ft | 136 kts | 225° |
| 2026-04-28 20:03 | -42.49553 | -71.53409 | 3504 ft | 137 kts | 226° |
| 2026-04-28 20:04 | -42.50025 | -71.53986 | 3496 ft | 138 kts | 226° |
| 2026-04-28 20:04 | -42.50746 | -71.54873 | 3499 ft | 138 kts | 226° |
| 2026-04-28 20:04 | -42.51701 | -71.56027 | 3477 ft | 139 kts | 225° |
| 2026-04-28 20:04 | -42.52422 | -71.56884 | 3496 ft | 137 kts | 226° |
| 2026-04-28 20:05 | -42.53142 | -71.57753 | 3501 ft | 138 kts | 225° |
| 2026-04-28 20:05 | -42.53865 | -71.58630 | 3494 ft | 139 kts | 226° |
| 2026-04-28 20:05 | -42.54579 | -71.59514 | 3504 ft | 138 kts | 226° |
| 2026-04-28 20:05 | -42.55299 | -71.60410 | 3505 ft | 139 kts | 227° |
| 2026-04-28 20:06 | -42.56018 | -71.61301 | 3511 ft | 138 kts | 227° |
| 2026-04-28 20:06 | -42.56737 | -71.62193 | 3531 ft | 138 kts | 228° |
| 2026-04-28 20:06 | -42.57455 | -71.63080 | 3511 ft | 139 kts | 227° |
| 2026-04-28 20:06 | -42.58183 | -71.63950 | 3512 ft | 140 kts | 220° |
| 2026-04-28 20:07 | -42.59001 | -71.64669 | 3500 ft | 142 kts | 214° |
| 2026-04-28 20:07 | -42.59560 | -71.65114 | 3490 ft | 140 kts | 213° |
| 2026-04-28 20:07 | -42.60753 | -71.65858 | 3489 ft | 142 kts | 210° |
| 2026-04-28 20:07 | -42.61652 | -71.66426 | 3488 ft | 142 kts | 211° |
| 2026-04-28 20:08 | -42.62546 | -71.67001 | 3498 ft | 142 kts | 209° |
| 2026-04-28 20:08 | -42.63429 | -71.67588 | 3500 ft | 142 kts | 209° |
| 2026-04-28 20:08 | -42.64321 | -71.68168 | 3497 ft | 143 kts | 208° |
| 2026-04-28 20:08 | -42.65223 | -71.68706 | 3499 ft | 142 kts | 207° |
| 2026-04-28 20:09 | -42.66139 | -71.69253 | 3500 ft | 143 kts | 206° |
| 2026-04-28 20:09 | -42.67055 | -71.69813 | 3472 ft | 141 kts | 206° |
| 2026-04-28 20:09 | -42.67956 | -71.70358 | 3463 ft | 139 kts | 207° |
| 2026-04-28 20:09 | -42.68858 | -71.70909 | 3486 ft | 139 kts | 206° |
| 2026-04-28 20:10 | -42.69743 | -71.71465 | 3507 ft | 140 kts | 208° |
| 2026-04-28 20:10 | -42.70673 | -71.72021 | 3499 ft | 141 kts | 207° |
| 2026-04-28 20:10 | -42.71579 | -71.72567 | 3503 ft | 141 kts | 208° |
| 2026-04-28 20:10 | -42.72477 | -71.73090 | 3505 ft | 142 kts | 208° |
| 2026-04-28 20:11 | -42.73395 | -71.73634 | 3501 ft | 143 kts | 207° |
| 2026-04-28 20:11 | -42.74321 | -71.74177 | 3514 ft | 142 kts | 207° |
| 2026-04-28 20:11 | -42.75244 | -71.74734 | 3560 ft | 142 kts | 208° |
| 2026-04-28 20:11 | -42.76196 | -71.75176 | 3501 ft | 149 kts | 188° |
| 2026-04-28 20:12 | -42.77214 | -71.74967 | 3528 ft | 147 kts | 167° |
| 2026-04-28 20:12 | -42.78204 | -71.74608 | 3513 ft | 147 kts | 166° |
| 2026-04-28 20:12 | -42.78860 | -71.74363 | 3510 ft | 148 kts | 166° |
| 2026-04-28 20:12 | -42.79865 | -71.73987 | 3328 ft | 155 kts | 165° |
| 2026-04-28 20:13 | -42.81266 | -71.73368 | 3139 ft | 152 kts | 159° |
| 2026-04-28 20:13 | -42.82240 | -71.72863 | 3121 ft | 150 kts | 159° |
| 2026-04-28 20:13 | -42.83282 | -71.72775 | 3019 ft | 152 kts | 188° |
| 2026-04-28 20:13 | -42.84331 | -71.72904 | 2992 ft | 150 kts | 187° |
| 2026-04-28 20:14 | -42.85352 | -71.73030 | 3025 ft | 148 kts | 188° |
| 2026-04-28 20:14 | -42.86379 | -71.73164 | 3020 ft | 147 kts | 187° |
| 2026-04-28 20:14 | -42.87411 | -71.73225 | 2985 ft | 149 kts | 173° |
| 2026-04-28 20:14 | -42.88427 | -71.72940 | 3003 ft | 146 kts | 172° |
| 2026-04-28 20:15 | -42.89457 | -71.72778 | 2960 ft | 149 kts | 176° |
| 2026-04-28 20:15 | -42.90554 | -71.72644 | 2714 ft | 157 kts | 175° |
| 2026-04-28 20:15 | -42.91663 | -71.72517 | 2554 ft | 156 kts | 176° |
| 2026-04-28 20:15 | -42.92726 | -71.72285 | 2513 ft | 150 kts | 171° |
| 2026-04-28 20:16 | -42.93762 | -71.72003 | 2487 ft | 147 kts | 170° |
| 2026-04-28 20:16 | -42.94790 | -71.72029 | 2514 ft | 143 kts | 188° |
| 2026-04-28 20:16 | -42.95795 | -71.72162 | 2516 ft | 144 kts | 187° |
| 2026-04-28 20:16 | -42.96792 | -71.72308 | 2503 ft | 144 kts | 189° |
| 2026-04-28 20:17 | -42.97462 | -71.72401 | 2491 ft | 143 kts | 187° |
| 2026-04-28 20:17 | -42.98810 | -71.72601 | 2507 ft | 144 kts | 187° |
| 2026-04-28 20:17 | -42.99821 | -71.72737 | 2522 ft | 147 kts | 188° |
| 2026-04-28 20:17 | -43.00885 | -71.72580 | 2488 ft | 148 kts | 159° |
| 2026-04-28 20:18 | -43.01828 | -71.72012 | 2477 ft | 150 kts | 154° |
| 2026-04-28 20:18 | -43.02452 | -71.71587 | 2501 ft | 148 kts | 153° |
| 2026-04-28 20:18 | -43.03695 | -71.70807 | 2483 ft | 148 kts | 154° |
| 2026-04-28 20:18 | -43.04625 | -71.70241 | 2495 ft | 145 kts | 156° |
| 2026-04-28 20:19 | -43.05527 | -71.69668 | 2412 ft | 137 kts | 155° |
| 2026-04-28 20:19 | -43.06340 | -71.69113 | 2486 ft | 130 kts | 154° |
| 2026-04-28 20:19 | -43.07141 | -71.68561 | 2489 ft | 129 kts | 153° |
| 2026-04-28 20:19 | -43.07956 | -71.67990 | 2477 ft | 133 kts | 152° |
| 2026-04-28 20:20 | -43.08773 | -71.67413 | 2467 ft | 131 kts | 154° |
| 2026-04-28 20:20 | -43.09584 | -71.66838 | 2455 ft | 132 kts | 153° |
| 2026-04-28 20:20 | -43.10397 | -71.66255 | 2450 ft | 133 kts | 153° |
| 2026-04-28 20:20 | -43.11237 | -71.65625 | 2311 ft | 140 kts | 147° |
| 2026-04-28 20:21 | -43.12024 | -71.64819 | 2180 ft | 140 kts | 142° |
| 2026-04-28 20:21 | -43.12782 | -71.64025 | 2101 ft | 138 kts | 146° |
| 2026-04-28 20:21 | -43.13641 | -71.63475 | 2099 ft | 132 kts | 165° |
| 2026-04-28 20:21 | -43.14539 | -71.63313 | 2130 ft | 128 kts | 186° |
| 2026-04-28 20:22 | -43.15387 | -71.63575 | 2081 ft | 129 kts | 208° |
| 2026-04-28 20:22 | -43.16086 | -71.64365 | 1867 ft | 129 kts | 240° |
| 2026-04-28 20:22 | -43.16249 | -71.65502 | 1743 ft | 121 kts | 276° |
| 2026-04-28 20:22 | -43.16242 | -71.66246 | 1752 ft | 116 kts | 275° |
| 2026-04-28 20:23 | -43.16218 | -71.67722 | 1762 ft | 114 kts | 274° |
| 2026-04-28 20:23 | -43.16259 | -71.68812 | 1724 ft | 116 kts | 268° |
| 2026-04-28 20:23 | -43.16409 | -71.69898 | 1712 ft | 115 kts | 265° |
| 2026-04-28 20:23 | -43.16492 | -71.70605 | 1717 ft | 114 kts | 269° |
| 2026-04-28 20:24 | -43.16509 | -71.71980 | 1690 ft | 98 kts | 282° |
| 2026-04-28 20:24 | -43.16438 | -71.72888 | 1868 ft | 100 kts | 281° |
| 2026-04-28 20:24 | -43.16356 | -71.73827 | 1905 ft | 103 kts | 280° |
| 2026-04-28 20:24 | -43.16570 | -71.74834 | 1763 ft | 119 kts | 236° |
| 2026-04-28 20:25 | -43.17270 | -71.75610 | 1349 ft | 145 kts | 217° |
| 2026-04-28 20:25 | -43.18068 | -71.76333 | 1346 ft | 128 kts | 219° |
| 2026-04-28 20:25 | -43.18562 | -71.77232 | 1458 ft | 111 kts | 256° |
| 2026-04-28 20:25 | -43.18669 | -71.78239 | 1631 ft | 106 kts | 266° |
| 2026-04-28 20:26 | -43.18766 | -71.79255 | 1689 ft | 107 kts | 266° |
| 2026-04-28 20:26 | -43.18961 | -71.80255 | 1702 ft | 108 kts | 254° |
| 2026-04-28 20:26 | -43.19222 | -71.81198 | 1705 ft | 103 kts | 253° |
| 2026-04-28 20:26 | -43.19321 | -71.82111 | 1695 ft | 93 kts | 283° |
| 2026-04-28 20:27 | -43.19207 | -71.82667 | 1703 ft | 88 kts | 296° |
| 2026-04-28 20:27 | -43.19001 | -71.83463 | 1600 ft | 89 kts | 296° |
| 2026-04-28 20:27 | -43.18824 | -71.84243 | 1698 ft | 36 kts | 287° |
| 2026-04-28 20:27 | -43.18728 | -71.84725 | 1592 ft | 63 kts | 301° |
| 2026-04-28 20:28 | -43.18572 | -71.85164 | 1461 ft | 52 kts | 286° |
| 2026-04-28 20:28 | -43.18634 | -71.85443 | 1353 ft | 26 kts | 181° |
| 2026-04-28 20:28 | -43.18661 | -71.85431 | 1132 ft | 1 kts | 220° |
| 2026-04-28 20:28 | -43.18664 | -71.85436 | 1131 ft | 0 kts | 248° |
| 2026-04-28 20:29 | -43.18665 | -71.85440 | 1174 ft | 4 kts | 232° |
| 2026-04-28 20:29 | -43.18794 | -71.85442 | 1189 ft | 25 kts | 146° |
| 2026-04-28 20:29 | -43.18830 | -71.85418 | 1156 ft | 2 kts | 193° |
| 2026-04-28 20:30 | -43.18833 | -71.85418 | 1148 ft | 0 kts | 195° |